Terminal Aerodrome Forecast
Issued by NWS

Home | Current Version | Previous Version | Text Only | Print | Product List | Glossary On
Versions: 1 2 3 4 5 6 7 8 9 10 11 12
000
FTUS45 KABQ 222300
TAFFMN
TAF
KFMN 222337Z 2300/2324 34005KT P6SM VCSH SCT080 BKN100
     FM230200 VRB05KT P6SM BKN090
     FM230600 08005KT P6SM SCT070
     FM231800 25008KT P6SM FEW080=

USA.gov is the U.S. government's official web portal to all federal, state and local government web resources and services.